sensor_id;sensor_type;location;lat;lon;timestamp;P1;durP1;ratioP1;P2;durP2;ratioP2
9500;SDS011;4788;52.438;9.846;2022-07-24T00:00:40;0.50;;;0.50;;
9500;SDS011;4788;52.438;9.846;2022-07-24T00:03:06;0.50;;;0.50;;
9500;SDS011;4788;52.438;9.846;2022-07-24T00:05:32;0.50;;;0.50;;
9500;SDS011;4788;52.438;9.846;2022-07-24T00:07:58;0.50;;;0.50;;
9500;SDS011;4788;52.438;9.846;2022-07-24T00:10:25;0.40;;;0.40;;
9500;SDS011;4788;52.438;9.846;2022-07-24T00:12:51;0.50;;;0.50;;
9500;SDS011;4788;52.438;9.846;2022-07-24T00:15:17;0.50;;;0.50;;
9500;SDS011;4788;52.438;9.846;2022-07-24T00:17:43;0.60;;;0.60;;
9500;SDS011;4788;52.438;9.846;2022-07-24T00:20:09;0.50;;;0.50;;
9500;SDS011;4788;52.438;9.846;2022-07-24T00:22:35;0.50;;;0.50;;
9500;SDS011;4788;52.438;9.846;2022-07-24T00:25:01;0.53;;;0.53;;
9500;SDS011;4788;52.438;9.846;2022-07-24T00:27:27;0.50;;;0.50;;
9500;SDS011;4788;52.438;9.846;2022-07-24T00:29:53;0.57;;;0.57;;
9500;SDS011;4788;52.438;9.846;2022-07-24T00:32:19;0.40;;;0.40;;
9500;SDS011;4788;52.438;9.846;2022-07-24T00:34:45;0.57;;;0.57;;
9500;SDS011;4788;52.438;9.846;2022-07-24T00:37:11;0.50;;;0.50;;
9500;SDS011;4788;52.438;9.846;2022-07-24T00:39:37;0.60;;;0.60;;
9500;SDS011;4788;52.438;9.846;2022-07-24T00:42:03;0.40;;;0.40;;
9500;SDS011;4788;52.438;9.846;2022-07-24T00:44:29;0.60;;;0.60;;
9500;SDS011;4788;52.438;9.846;2022-07-24T00:46:55;0.50;;;0.50;;
9500;SDS011;4788;52.438;9.846;2022-07-24T00:49:21;0.43;;;0.43;;
9500;SDS011;4788;52.438;9.846;2022-07-24T00:51:48;0.50;;;0.50;;
9500;SDS011;4788;52.438;9.846;2022-07-24T00:54:15;0.40;;;0.40;;
9500;SDS011;4788;52.438;9.846;2022-07-24T00:56:42;0.40;;;0.40;;
9500;SDS011;4788;52.438;9.846;2022-07-24T00:59:09;0.50;;;0.50;;
9500;SDS011;4788;52.438;9.846;2022-07-24T01:01:35;0.50;;;0.50;;
9500;SDS011;4788;52.438;9.846;2022-07-24T01:04:01;0.50;;;0.50;;
9500;SDS011;4788;52.438;9.846;2022-07-24T01:06:27;0.60;;;0.60;;
9500;SDS011;4788;52.438;9.846;2022-07-24T01:08:53;0.50;;;0.50;;
9500;SDS011;4788;52.438;9.846;2022-07-24T01:11:19;0.40;;;0.40;;
9500;SDS011;4788;52.438;9.846;2022-07-24T01:13:46;0.50;;;0.50;;
9500;SDS011;4788;52.438;9.846;2022-07-24T01:16:12;0.53;;;0.53;;
9500;SDS011;4788;52.438;9.846;2022-07-24T01:18:38;0.60;;;0.60;;
9500;SDS011;4788;52.438;9.846;2022-07-24T01:21:04;0.50;;;0.50;;
9500;SDS011;4788;52.438;9.846;2022-07-24T01:23:30;0.47;;;0.47;;
9500;SDS011;4788;52.438;9.846;2022-07-24T01:25:56;0.50;;;0.50;;
9500;SDS011;4788;52.438;9.846;2022-07-24T01:28:22;0.50;;;0.50;;
9500;SDS011;4788;52.438;9.846;2022-07-24T01:30:48;0.50;;;0.50;;
9500;SDS011;4788;52.438;9.846;2022-07-24T01:33:14;0.40;;;0.40;;
9500;SDS011;4788;52.438;9.846;2022-07-24T01:35:41;0.50;;;0.50;;
9500;SDS011;4788;52.438;9.846;2022-07-24T01:38:07;0.57;;;0.57;;
9500;SDS011;4788;52.438;9.846;2022-07-24T01:40:33;0.50;;;0.50;;
9500;SDS011;4788;52.438;9.846;2022-07-24T01:42:59;0.50;;;0.50;;
9500;SDS011;4788;52.438;9.846;2022-07-24T01:45:25;0.50;;;0.50;;
9500;SDS011;4788;52.438;9.846;2022-07-24T01:47:51;0.50;;;0.50;;
9500;SDS011;4788;52.438;9.846;2022-07-24T01:50:17;0.60;;;0.60;;
9500;SDS011;4788;52.438;9.846;2022-07-24T01:52:43;0.50;;;0.50;;
9500;SDS011;4788;52.438;9.846;2022-07-24T01:55:09;0.50;;;0.50;;
9500;SDS011;4788;52.438;9.846;2022-07-24T01:57:36;0.53;;;0.53;;
9500;SDS011;4788;52.438;9.846;2022-07-24T02:00:03;0.60;;;0.60;;
9500;SDS011;4788;52.438;9.846;2022-07-24T02:02:30;0.50;;;0.50;;
9500;SDS011;4788;52.438;9.846;2022-07-24T02:04:56;0.60;;;0.60;;
9500;SDS011;4788;52.438;9.846;2022-07-24T02:07:22;0.40;;;0.40;;
9500;SDS011;4788;52.438;9.846;2022-07-24T02:09:48;0.60;;;0.60;;
9500;SDS011;4788;52.438;9.846;2022-07-24T02:12:14;0.50;;;0.50;;
9500;SDS011;4788;52.438;9.846;2022-07-24T02:14:40;0.60;;;0.60;;
9500;SDS011;4788;52.438;9.846;2022-07-24T02:17:06;0.60;;;0.60;;
9500;SDS011;4788;52.438;9.846;2022-07-24T02:19:32;0.60;;;0.60;;
9500;SDS011;4788;52.438;9.846;2022-07-24T02:21:58;0.43;;;0.43;;
9500;SDS011;4788;52.438;9.846;2022-07-24T02:24:23;0.50;;;0.50;;
9500;SDS011;4788;52.438;9.846;2022-07-24T02:26:49;0.50;;;0.50;;
9500;SDS011;4788;52.438;9.846;2022-07-24T02:29:16;0.50;;;0.50;;
9500;SDS011;4788;52.438;9.846;2022-07-24T02:31:42;0.57;;;0.57;;
9500;SDS011;4788;52.438;9.846;2022-07-24T02:34:07;0.50;;;0.50;;
9500;SDS011;4788;52.438;9.846;2022-07-24T02:36:33;0.60;;;0.60;;
9500;SDS011;4788;52.438;9.846;2022-07-24T02:38:59;0.50;;;0.50;;
9500;SDS011;4788;52.438;9.846;2022-07-24T02:41:25;0.50;;;0.50;;
9500;SDS011;4788;52.438;9.846;2022-07-24T02:43:51;0.57;;;0.57;;
9500;SDS011;4788;52.438;9.846;2022-07-24T02:46:17;0.50;;;0.50;;
9500;SDS011;4788;52.438;9.846;2022-07-24T02:48:43;0.57;;;0.57;;
9500;SDS011;4788;52.438;9.846;2022-07-24T02:51:09;0.50;;;0.50;;
9500;SDS011;4788;52.438;9.846;2022-07-24T02:53:35;0.60;;;0.60;;
9500;SDS011;4788;52.438;9.846;2022-07-24T02:56:01;0.50;;;0.50;;
9500;SDS011;4788;52.438;9.846;2022-07-24T02:58:27;0.50;;;0.50;;
9500;SDS011;4788;52.438;9.846;2022-07-24T03:00:53;0.50;;;0.50;;
9500;SDS011;4788;52.438;9.846;2022-07-24T03:03:19;0.40;;;0.40;;
9500;SDS011;4788;52.438;9.846;2022-07-24T03:05:45;0.50;;;0.50;;
9500;SDS011;4788;52.438;9.846;2022-07-24T03:08:12;0.43;;;0.43;;
9500;SDS011;4788;52.438;9.846;2022-07-24T03:10:38;0.60;;;0.60;;
9500;SDS011;4788;52.438;9.846;2022-07-24T03:13:04;0.47;;;0.47;;
9500;SDS011;4788;52.438;9.846;2022-07-24T03:15:30;0.57;;;0.57;;
9500;SDS011;4788;52.438;9.846;2022-07-24T03:17:56;0.60;;;0.60;;
9500;SDS011;4788;52.438;9.846;2022-07-24T03:20:23;0.50;;;0.50;;
9500;SDS011;4788;52.438;9.846;2022-07-24T03:22:49;0.60;;;0.60;;
9500;SDS011;4788;52.438;9.846;2022-07-24T03:25:15;0.50;;;0.50;;
9500;SDS011;4788;52.438;9.846;2022-07-24T03:27:41;0.50;;;0.50;;
9500;SDS011;4788;52.438;9.846;2022-07-24T03:30:07;0.50;;;0.50;;
9500;SDS011;4788;52.438;9.846;2022-07-24T03:32:34;0.60;;;0.60;;
9500;SDS011;4788;52.438;9.846;2022-07-24T03:35:00;0.50;;;0.50;;
9500;SDS011;4788;52.438;9.846;2022-07-24T03:37:26;0.60;;;0.60;;
9500;SDS011;4788;52.438;9.846;2022-07-24T03:39:53;0.50;;;0.50;;
9500;SDS011;4788;52.438;9.846;2022-07-24T03:42:19;0.50;;;0.50;;
9500;SDS011;4788;52.438;9.846;2022-07-24T03:44:45;0.50;;;0.50;;
9500;SDS011;4788;52.438;9.846;2022-07-24T03:47:11;0.50;;;0.50;;
9500;SDS011;4788;52.438;9.846;2022-07-24T03:49:37;0.60;;;0.60;;
9500;SDS011;4788;52.438;9.846;2022-07-24T03:52:03;0.50;;;0.50;;
9500;SDS011;4788;52.438;9.846;2022-07-24T03:54:29;0.60;;;0.60;;
9500;SDS011;4788;52.438;9.846;2022-07-24T03:56:55;0.50;;;0.50;;
9500;SDS011;4788;52.438;9.846;2022-07-24T03:59:21;0.60;;;0.60;;
9500;SDS011;4788;52.438;9.846;2022-07-24T04:01:47;0.50;;;0.50;;
9500;SDS011;4788;52.438;9.846;2022-07-24T04:04:13;0.50;;;0.50;;
9500;SDS011;4788;52.438;9.846;2022-07-24T04:06:39;0.60;;;0.60;;
9500;SDS011;4788;52.438;9.846;2022-07-24T04:09:05;0.60;;;0.60;;
9500;SDS011;4788;52.438;9.846;2022-07-24T04:11:31;0.60;;;0.60;;
9500;SDS011;4788;52.438;9.846;2022-07-24T04:13:57;0.50;;;0.50;;
9500;SDS011;4788;52.438;9.846;2022-07-24T04:16:23;0.50;;;0.50;;
9500;SDS011;4788;52.438;9.846;2022-07-24T04:18:49;0.50;;;0.50;;
9500;SDS011;4788;52.438;9.846;2022-07-24T04:21:15;0.60;;;0.60;;
9500;SDS011;4788;52.438;9.846;2022-07-24T04:23:41;0.50;;;0.50;;
9500;SDS011;4788;52.438;9.846;2022-07-24T04:26:07;0.50;;;0.50;;
9500;SDS011;4788;52.438;9.846;2022-07-24T04:28:33;0.60;;;0.60;;
9500;SDS011;4788;52.438;9.846;2022-07-24T04:30:59;0.40;;;0.40;;
9500;SDS011;4788;52.438;9.846;2022-07-24T04:33:25;0.60;;;0.60;;
9500;SDS011;4788;52.438;9.846;2022-07-24T04:35:51;0.50;;;0.50;;
9500;SDS011;4788;52.438;9.846;2022-07-24T04:38:17;0.50;;;0.50;;
9500;SDS011;4788;52.438;9.846;2022-07-24T04:40:43;0.63;;;0.63;;
9500;SDS011;4788;52.438;9.846;2022-07-24T04:43:09;0.60;;;0.60;;
9500;SDS011;4788;52.438;9.846;2022-07-24T04:45:35;0.50;;;0.50;;
9500;SDS011;4788;52.438;9.846;2022-07-24T04:48:01;0.60;;;0.60;;
9500;SDS011;4788;52.438;9.846;2022-07-24T04:50:28;0.53;;;0.53;;
9500;SDS011;4788;52.438;9.846;2022-07-24T04:52:54;0.50;;;0.50;;
9500;SDS011;4788;52.438;9.846;2022-07-24T04:55:20;0.50;;;0.50;;
9500;SDS011;4788;52.438;9.846;2022-07-24T04:57:46;0.50;;;0.50;;
9500;SDS011;4788;52.438;9.846;2022-07-24T05:00:12;0.50;;;0.50;;
9500;SDS011;4788;52.438;9.846;2022-07-24T05:02:38;0.50;;;0.50;;
9500;SDS011;4788;52.438;9.846;2022-07-24T05:05:05;0.47;;;0.47;;
9500;SDS011;4788;52.438;9.846;2022-07-24T05:07:31;0.47;;;0.47;;
9500;SDS011;4788;52.438;9.846;2022-07-24T05:09:57;0.50;;;0.50;;
9500;SDS011;4788;52.438;9.846;2022-07-24T05:12:23;0.60;;;0.60;;
9500;SDS011;4788;52.438;9.846;2022-07-24T05:14:49;0.50;;;0.50;;
9500;SDS011;4788;52.438;9.846;2022-07-24T05:17:15;0.50;;;0.50;;
9500;SDS011;4788;52.438;9.846;2022-07-24T05:19:41;0.50;;;0.50;;
9500;SDS011;4788;52.438;9.846;2022-07-24T05:22:07;0.43;;;0.43;;
9500;SDS011;4788;52.438;9.846;2022-07-24T05:24:33;0.40;;;0.40;;
9500;SDS011;4788;52.438;9.846;2022-07-24T05:26:59;0.50;;;0.50;;
9500;SDS011;4788;52.438;9.846;2022-07-24T05:29:25;0.40;;;0.40;;
9500;SDS011;4788;52.438;9.846;2022-07-24T05:31:51;0.40;;;0.40;;
9500;SDS011;4788;52.438;9.846;2022-07-24T05:34:19;0.30;;;0.30;;
9500;SDS011;4788;52.438;9.846;2022-07-24T05:36:45;0.40;;;0.40;;
9500;SDS011;4788;52.438;9.846;2022-07-24T05:39:11;0.40;;;0.40;;
9500;SDS011;4788;52.438;9.846;2022-07-24T05:41:37;0.50;;;0.50;;
9500;SDS011;4788;52.438;9.846;2022-07-24T05:44:03;0.50;;;0.50;;
9500;SDS011;4788;52.438;9.846;2022-07-24T05:46:29;0.40;;;0.40;;
9500;SDS011;4788;52.438;9.846;2022-07-24T05:48:55;0.50;;;0.50;;
9500;SDS011;4788;52.438;9.846;2022-07-24T05:51:21;0.40;;;0.40;;
9500;SDS011;4788;52.438;9.846;2022-07-24T05:53:47;0.40;;;0.40;;
9500;SDS011;4788;52.438;9.846;2022-07-24T05:56:13;0.30;;;0.30;;
9500;SDS011;4788;52.438;9.846;2022-07-24T05:58:38;0.40;;;0.40;;
9500;SDS011;4788;52.438;9.846;2022-07-24T06:01:04;0.40;;;0.40;;
9500;SDS011;4788;52.438;9.846;2022-07-24T06:03:30;0.40;;;0.40;;
9500;SDS011;4788;52.438;9.846;2022-07-24T06:05:56;0.40;;;0.40;;
9500;SDS011;4788;52.438;9.846;2022-07-24T06:08:22;0.50;;;0.50;;
9500;SDS011;4788;52.438;9.846;2022-07-24T06:10:48;0.40;;;0.40;;
9500;SDS011;4788;52.438;9.846;2022-07-24T06:13:14;0.40;;;0.40;;
9500;SDS011;4788;52.438;9.846;2022-07-24T06:15:40;0.40;;;0.40;;
9500;SDS011;4788;52.438;9.846;2022-07-24T06:18:06;0.40;;;0.40;;
9500;SDS011;4788;52.438;9.846;2022-07-24T06:20:32;0.40;;;0.40;;
9500;SDS011;4788;52.438;9.846;2022-07-24T06:22:58;0.30;;;0.30;;
9500;SDS011;4788;52.438;9.846;2022-07-24T06:25:24;0.30;;;0.30;;
9500;SDS011;4788;52.438;9.846;2022-07-24T06:27:50;0.30;;;0.30;;
9500;SDS011;4788;52.438;9.846;2022-07-24T06:30:22;0.30;;;0.30;;
9500;SDS011;4788;52.438;9.846;2022-07-24T06:32:49;0.30;;;0.30;;
9500;SDS011;4788;52.438;9.846;2022-07-24T06:35:15;0.30;;;0.30;;
9500;SDS011;4788;52.438;9.846;2022-07-24T06:37:41;0.30;;;0.30;;
9500;SDS011;4788;52.438;9.846;2022-07-24T06:40:08;0.30;;;0.30;;
9500;SDS011;4788;52.438;9.846;2022-07-24T06:42:34;0.30;;;0.30;;
9500;SDS011;4788;52.438;9.846;2022-07-24T06:45:00;0.30;;;0.30;;
9500;SDS011;4788;52.438;9.846;2022-07-24T06:47:27;0.30;;;0.30;;
9500;SDS011;4788;52.438;9.846;2022-07-24T06:49:53;0.30;;;0.30;;
9500;SDS011;4788;52.438;9.846;2022-07-24T06:52:19;0.30;;;0.30;;
9500;SDS011;4788;52.438;9.846;2022-07-24T06:54:45;0.30;;;0.30;;
9500;SDS011;4788;52.438;9.846;2022-07-24T06:57:11;0.30;;;0.30;;
9500;SDS011;4788;52.438;9.846;2022-07-24T06:59:37;0.30;;;0.30;;
9500;SDS011;4788;52.438;9.846;2022-07-24T07:02:03;0.30;;;0.30;;
9500;SDS011;4788;52.438;9.846;2022-07-24T07:04:29;0.20;;;0.20;;
9500;SDS011;4788;52.438;9.846;2022-07-24T07:06:55;0.30;;;0.30;;
9500;SDS011;4788;52.438;9.846;2022-07-24T07:09:21;0.30;;;0.30;;
9500;SDS011;4788;52.438;9.846;2022-07-24T07:11:47;0.30;;;0.30;;
9500;SDS011;4788;52.438;9.846;2022-07-24T07:14:13;0.30;;;0.30;;
9500;SDS011;4788;52.438;9.846;2022-07-24T07:16:39;0.30;;;0.30;;
9500;SDS011;4788;52.438;9.846;2022-07-24T07:19:05;0.30;;;0.30;;
9500;SDS011;4788;52.438;9.846;2022-07-24T07:21:31;0.20;;;0.20;;
9500;SDS011;4788;52.438;9.846;2022-07-24T07:23:57;0.30;;;0.30;;
9500;SDS011;4788;52.438;9.846;2022-07-24T07:26:23;0.20;;;0.20;;
9500;SDS011;4788;52.438;9.846;2022-07-24T07:28:49;0.30;;;0.30;;
9500;SDS011;4788;52.438;9.846;2022-07-24T07:31:15;0.20;;;0.20;;
9500;SDS011;4788;52.438;9.846;2022-07-24T07:33:41;0.20;;;0.20;;
9500;SDS011;4788;52.438;9.846;2022-07-24T07:36:07;0.20;;;0.20;;
9500;SDS011;4788;52.438;9.846;2022-07-24T07:38:33;0.20;;;0.20;;
9500;SDS011;4788;52.438;9.846;2022-07-24T07:41:02;0.20;;;0.20;;
9500;SDS011;4788;52.438;9.846;2022-07-24T07:43:28;0.10;;;0.10;;
9500;SDS011;4788;52.438;9.846;2022-07-24T07:45:54;0.20;;;0.20;;
9500;SDS011;4788;52.438;9.846;2022-07-24T07:48:20;0.20;;;0.20;;
9500;SDS011;4788;52.438;9.846;2022-07-24T07:50:46;0.20;;;0.20;;
9500;SDS011;4788;52.438;9.846;2022-07-24T07:53:12;0.20;;;0.20;;
9500;SDS011;4788;52.438;9.846;2022-07-24T07:55:38;0.20;;;0.20;;
9500;SDS011;4788;52.438;9.846;2022-07-24T07:58:04;0.15;;;0.15;;
9500;SDS011;4788;52.438;9.846;2022-07-24T08:00:31;0.10;;;0.10;;
9500;SDS011;4788;52.438;9.846;2022-07-24T08:02:57;0.10;;;0.10;;
9500;SDS011;4788;52.438;9.846;2022-07-24T08:05:23;0.10;;;0.10;;
9500;SDS011;4788;52.438;9.846;2022-07-24T08:07:49;0.10;;;0.10;;
9500;SDS011;4788;52.438;9.846;2022-07-24T08:10:15;0.10;;;0.10;;
9500;SDS011;4788;52.438;9.846;2022-07-24T08:12:41;0.10;;;0.10;;
9500;SDS011;4788;52.438;9.846;2022-07-24T08:15:07;0.10;;;0.10;;
9500;SDS011;4788;52.438;9.846;2022-07-24T08:17:33;0.10;;;0.10;;
9500;SDS011;4788;52.438;9.846;2022-07-24T08:19:59;0.10;;;0.10;;
9500;SDS011;4788;52.438;9.846;2022-07-24T08:22:25;0.13;;;0.13;;
9500;SDS011;4788;52.438;9.846;2022-07-24T08:24:51;0.10;;;0.10;;
9500;SDS011;4788;52.438;9.846;2022-07-24T08:27:17;0.10;;;0.10;;
9500;SDS011;4788;52.438;9.846;2022-07-24T08:29:43;0.10;;;0.10;;
9500;SDS011;4788;52.438;9.846;2022-07-24T08:32:09;0.10;;;0.10;;
9500;SDS011;4788;52.438;9.846;2022-07-24T08:34:35;0.10;;;0.10;;
9500;SDS011;4788;52.438;9.846;2022-07-24T08:37:01;0.10;;;0.10;;
9500;SDS011;4788;52.438;9.846;2022-07-24T08:39:27;0.10;;;0.10;;
9500;SDS011;4788;52.438;9.846;2022-07-24T08:41:53;0.10;;;0.10;;
9500;SDS011;4788;52.438;9.846;2022-07-24T08:44:18;0.10;;;0.10;;
9500;SDS011;4788;52.438;9.846;2022-07-24T08:46:45;0.10;;;0.10;;
9500;SDS011;4788;52.438;9.846;2022-07-24T08:49:12;0.10;;;0.10;;
9500;SDS011;4788;52.438;9.846;2022-07-24T08:51:39;0.10;;;0.10;;
9500;SDS011;4788;52.438;9.846;2022-07-24T08:54:06;0.10;;;0.10;;
9500;SDS011;4788;52.438;9.846;2022-07-24T08:56:32;0.10;;;0.10;;
9500;SDS011;4788;52.438;9.846;2022-07-24T08:58:58;0.10;;;0.10;;
9500;SDS011;4788;52.438;9.846;2022-07-24T09:01:25;0.00;;;0.00;;
9500;SDS011;4788;52.438;9.846;2022-07-24T09:03:51;0.10;;;0.10;;
9500;SDS011;4788;52.438;9.846;2022-07-24T09:06:17;0.10;;;0.10;;
9500;SDS011;4788;52.438;9.846;2022-07-24T09:08:56;0.10;;;0.10;;
9500;SDS011;4788;52.438;9.846;2022-07-24T09:11:22;0.10;;;0.10;;
9500;SDS011;4788;52.438;9.846;2022-07-24T09:13:51;0.03;;;0.03;;
9500;SDS011;4788;52.438;9.846;2022-07-24T09:16:35;0.08;;;0.08;;
9500;SDS011;4788;52.438;9.846;2022-07-24T09:19:03;0.10;;;0.10;;
9500;SDS011;4788;52.438;9.846;2022-07-24T09:21:32;0.03;;;0.03;;
9500;SDS011;4788;52.438;9.846;2022-07-24T09:23:58;0.10;;;0.10;;
9500;SDS011;4788;52.438;9.846;2022-07-24T09:26:43;0.00;;;0.00;;
9500;SDS011;4788;52.438;9.846;2022-07-24T09:29:10;0.00;;;0.00;;
9500;SDS011;4788;52.438;9.846;2022-07-24T09:31:56;0.10;;;0.10;;
9500;SDS011;4788;52.438;9.846;2022-07-24T09:34:26;0.10;;;0.10;;
9500;SDS011;4788;52.438;9.846;2022-07-24T09:37:00;0.00;;;0.00;;
9500;SDS011;4788;52.438;9.846;2022-07-24T09:39:27;0.10;;;0.10;;
9500;SDS011;4788;52.438;9.846;2022-07-24T09:41:55;0.10;;;0.10;;
9500;SDS011;4788;52.438;9.846;2022-07-24T09:44:21;0.10;;;0.10;;
9500;SDS011;4788;52.438;9.846;2022-07-24T09:46:57;0.10;;;0.10;;
9500;SDS011;4788;52.438;9.846;2022-07-24T09:49:23;0.00;;;0.00;;
9500;SDS011;4788;52.438;9.846;2022-07-24T09:54:32;0.10;;;0.10;;
9500;SDS011;4788;52.438;9.846;2022-07-24T09:59:45;0.10;;;0.10;;
9500;SDS011;4788;52.438;9.846;2022-07-24T10:02:13;0.10;;;0.10;;
9500;SDS011;4788;52.438;9.846;2022-07-24T10:04:39;0.00;;;0.00;;
9500;SDS011;4788;52.438;9.846;2022-07-24T10:07:06;0.00;;;0.00;;
9500;SDS011;4788;52.438;9.846;2022-07-24T10:09:35;0.00;;;0.00;;
9500;SDS011;4788;52.438;9.846;2022-07-24T10:12:01;0.00;;;0.00;;
9500;SDS011;4788;52.438;9.846;2022-07-24T10:14:29;0.10;;;0.10;;
9500;SDS011;4788;52.438;9.846;2022-07-24T10:17:02;0.00;;;0.00;;
9500;SDS011;4788;52.438;9.846;2022-07-24T10:19:31;0.00;;;0.00;;
9500;SDS011;4788;52.438;9.846;2022-07-24T10:22:03;0.00;;;0.00;;
9500;SDS011;4788;52.438;9.846;2022-07-24T10:24:47;0.00;;;0.00;;
9500;SDS011;4788;52.438;9.846;2022-07-24T10:27:22;0.00;;;0.00;;
9500;SDS011;4788;52.438;9.846;2022-07-24T10:29:49;0.00;;;0.00;;
9500;SDS011;4788;52.438;9.846;2022-07-24T10:32:17;0.00;;;0.00;;
9500;SDS011;4788;52.438;9.846;2022-07-24T10:34:48;0.00;;;0.00;;
9500;SDS011;4788;52.438;9.846;2022-07-24T10:39:44;0.00;;;0.00;;
9500;SDS011;4788;52.438;9.846;2022-07-24T10:42:13;0.00;;;0.00;;
9500;SDS011;4788;52.438;9.846;2022-07-24T10:44:39;0.10;;;0.10;;
9500;SDS011;4788;52.438;9.846;2022-07-24T10:47:06;0.03;;;0.03;;
9500;SDS011;4788;52.438;9.846;2022-07-24T10:49:53;0.00;;;0.00;;
9500;SDS011;4788;52.438;9.846;2022-07-24T10:52:28;0.00;;;0.00;;
9500;SDS011;4788;52.438;9.846;2022-07-24T10:57:45;0.00;;;0.00;;
9500;SDS011;4788;52.438;9.846;2022-07-24T11:00:25;0.00;;;0.00;;
9500;SDS011;4788;52.438;9.846;2022-07-24T11:02:59;0.00;;;0.00;;
9500;SDS011;4788;52.438;9.846;2022-07-24T11:05:26;0.00;;;0.00;;
9500;SDS011;4788;52.438;9.846;2022-07-24T11:10:48;0.00;;;0.00;;
9500;SDS011;4788;52.438;9.846;2022-07-24T11:18:37;0.00;;;0.00;;
9500;SDS011;4788;52.438;9.846;2022-07-24T11:21:04;0.00;;;0.00;;
9500;SDS011;4788;52.438;9.846;2022-07-24T11:23:30;0.00;;;0.00;;
9500;SDS011;4788;52.438;9.846;2022-07-24T11:28:41;0.00;;;0.00;;
9500;SDS011;4788;52.438;9.846;2022-07-24T11:31:09;0.05;;;0.05;;
9500;SDS011;4788;52.438;9.846;2022-07-24T11:33:35;0.00;;;0.00;;
9500;SDS011;4788;52.438;9.846;2022-07-24T11:36:06;0.00;;;0.00;;
9500;SDS011;4788;52.438;9.846;2022-07-24T11:38:32;0.00;;;0.00;;
9500;SDS011;4788;52.438;9.846;2022-07-24T11:41:05;0.00;;;0.00;;
9500;SDS011;4788;52.438;9.846;2022-07-24T11:43:33;0.00;;;0.00;;
9500;SDS011;4788;52.438;9.846;2022-07-24T11:45:59;0.00;;;0.00;;
9500;SDS011;4788;52.438;9.846;2022-07-24T11:48:25;0.00;;;0.00;;
9500;SDS011;4788;52.438;9.846;2022-07-24T11:51:01;0.00;;;0.00;;
9500;SDS011;4788;52.438;9.846;2022-07-24T11:53:27;0.00;;;0.00;;
9500;SDS011;4788;52.438;9.846;2022-07-24T11:56:02;0.00;;;0.00;;
9500;SDS011;4788;52.438;9.846;2022-07-24T11:58:28;0.00;;;0.00;;
9500;SDS011;4788;52.438;9.846;2022-07-24T12:00:54;0.00;;;0.00;;
9500;SDS011;4788;52.438;9.846;2022-07-24T12:03:23;0.00;;;0.00;;
9500;SDS011;4788;52.438;9.846;2022-07-24T12:05:49;0.00;;;0.00;;
9500;SDS011;4788;52.438;9.846;2022-07-24T12:08:18;0.00;;;0.00;;
9500;SDS011;4788;52.438;9.846;2022-07-24T12:10:46;0.00;;;0.00;;
9500;SDS011;4788;52.438;9.846;2022-07-24T12:13:15;0.00;;;0.00;;
9500;SDS011;4788;52.438;9.846;2022-07-24T12:15:41;0.00;;;0.00;;
9500;SDS011;4788;52.438;9.846;2022-07-24T12:18:07;0.00;;;0.00;;
9500;SDS011;4788;52.438;9.846;2022-07-24T12:20:41;0.00;;;0.00;;
9500;SDS011;4788;52.438;9.846;2022-07-24T12:23:08;0.00;;;0.00;;
9500;SDS011;4788;52.438;9.846;2022-07-24T12:25:34;0.00;;;0.00;;
9500;SDS011;4788;52.438;9.846;2022-07-24T12:28:04;0.00;;;0.00;;
9500;SDS011;4788;52.438;9.846;2022-07-24T12:30:32;0.00;;;0.00;;
9500;SDS011;4788;52.438;9.846;2022-07-24T12:33:06;0.00;;;0.00;;
9500;SDS011;4788;52.438;9.846;2022-07-24T12:35:33;0.00;;;0.00;;
9500;SDS011;4788;52.438;9.846;2022-07-24T12:38:00;0.00;;;0.00;;
9500;SDS011;4788;52.438;9.846;2022-07-24T12:43:01;0.00;;;0.00;;
9500;SDS011;4788;52.438;9.846;2022-07-24T12:45:28;0.00;;;0.00;;
9500;SDS011;4788;52.438;9.846;2022-07-24T12:50:38;0.00;;;0.00;;
9500;SDS011;4788;52.438;9.846;2022-07-24T12:53:05;0.00;;;0.00;;
9500;SDS011;4788;52.438;9.846;2022-07-24T12:55:31;0.00;;;0.00;;
9500;SDS011;4788;52.438;9.846;2022-07-24T12:58:01;0.00;;;0.00;;
9500;SDS011;4788;52.438;9.846;2022-07-24T13:00:28;0.00;;;0.00;;
9500;SDS011;4788;52.438;9.846;2022-07-24T13:02:54;0.00;;;0.00;;
9500;SDS011;4788;52.438;9.846;2022-07-24T13:05:36;0.00;;;0.00;;
9500;SDS011;4788;52.438;9.846;2022-07-24T13:08:02;0.00;;;0.00;;
9500;SDS011;4788;52.438;9.846;2022-07-24T13:10:28;0.00;;;0.00;;
9500;SDS011;4788;52.438;9.846;2022-07-24T13:12:54;0.00;;;0.00;;
9500;SDS011;4788;52.438;9.846;2022-07-24T13:15:20;0.00;;;0.00;;
9500;SDS011;4788;52.438;9.846;2022-07-24T13:17:46;0.00;;;0.00;;
9500;SDS011;4788;52.438;9.846;2022-07-24T13:20:12;0.00;;;0.00;;
9500;SDS011;4788;52.438;9.846;2022-07-24T13:22:38;0.00;;;0.00;;
9500;SDS011;4788;52.438;9.846;2022-07-24T13:25:04;0.00;;;0.00;;
9500;SDS011;4788;52.438;9.846;2022-07-24T13:27:30;0.00;;;0.00;;
9500;SDS011;4788;52.438;9.846;2022-07-24T13:29:56;0.00;;;0.00;;
9500;SDS011;4788;52.438;9.846;2022-07-24T13:32:22;0.10;;;0.10;;
9500;SDS011;4788;52.438;9.846;2022-07-24T13:34:48;0.00;;;0.00;;
9500;SDS011;4788;52.438;9.846;2022-07-24T13:37:14;0.00;;;0.00;;
9500;SDS011;4788;52.438;9.846;2022-07-24T13:39:40;0.00;;;0.00;;
9500;SDS011;4788;52.438;9.846;2022-07-24T13:42:08;0.10;;;0.10;;
9500;SDS011;4788;52.438;9.846;2022-07-24T13:44:34;0.00;;;0.00;;
9500;SDS011;4788;52.438;9.846;2022-07-24T13:47:00;0.00;;;0.00;;
9500;SDS011;4788;52.438;9.846;2022-07-24T13:49:26;0.00;;;0.00;;
9500;SDS011;4788;52.438;9.846;2022-07-24T13:51:52;0.00;;;0.00;;
9500;SDS011;4788;52.438;9.846;2022-07-24T13:54:18;0.00;;;0.00;;
9500;SDS011;4788;52.438;9.846;2022-07-24T13:56:44;0.10;;;0.10;;
9500;SDS011;4788;52.438;9.846;2022-07-24T13:59:10;0.00;;;0.00;;
9500;SDS011;4788;52.438;9.846;2022-07-24T14:01:36;0.00;;;0.00;;
9500;SDS011;4788;52.438;9.846;2022-07-24T14:04:03;0.10;;;0.10;;
9500;SDS011;4788;52.438;9.846;2022-07-24T14:06:31;0.00;;;0.00;;
9500;SDS011;4788;52.438;9.846;2022-07-24T14:08:59;0.00;;;0.00;;
9500;SDS011;4788;52.438;9.846;2022-07-24T14:11:24;0.10;;;0.10;;
9500;SDS011;4788;52.438;9.846;2022-07-24T14:13:50;0.08;;;0.08;;
9500;SDS011;4788;52.438;9.846;2022-07-24T14:16:16;0.03;;;0.03;;
9500;SDS011;4788;52.438;9.846;2022-07-24T14:18:42;0.00;;;0.00;;
9500;SDS011;4788;52.438;9.846;2022-07-24T14:21:08;0.00;;;0.00;;
9500;SDS011;4788;52.438;9.846;2022-07-24T14:23:34;0.00;;;0.00;;
9500;SDS011;4788;52.438;9.846;2022-07-24T14:26:00;0.00;;;0.00;;
9500;SDS011;4788;52.438;9.846;2022-07-24T14:28:26;0.10;;;0.10;;
9500;SDS011;4788;52.438;9.846;2022-07-24T14:30:52;0.00;;;0.00;;
9500;SDS011;4788;52.438;9.846;2022-07-24T14:33:18;0.10;;;0.10;;
9500;SDS011;4788;52.438;9.846;2022-07-24T14:35:44;0.10;;;0.10;;
9500;SDS011;4788;52.438;9.846;2022-07-24T14:38:10;0.05;;;0.05;;
9500;SDS011;4788;52.438;9.846;2022-07-24T14:40:36;0.10;;;0.10;;
9500;SDS011;4788;52.438;9.846;2022-07-24T14:43:02;0.10;;;0.10;;
9500;SDS011;4788;52.438;9.846;2022-07-24T14:45:28;0.10;;;0.10;;
9500;SDS011;4788;52.438;9.846;2022-07-24T14:47:54;0.10;;;0.10;;
9500;SDS011;4788;52.438;9.846;2022-07-24T14:50:20;0.10;;;0.10;;
9500;SDS011;4788;52.438;9.846;2022-07-24T14:52:46;0.10;;;0.10;;
9500;SDS011;4788;52.438;9.846;2022-07-24T14:55:13;0.10;;;0.10;;
9500;SDS011;4788;52.438;9.846;2022-07-24T14:57:39;0.10;;;0.10;;
9500;SDS011;4788;52.438;9.846;2022-07-24T15:00:05;0.10;;;0.10;;
9500;SDS011;4788;52.438;9.846;2022-07-24T15:02:31;0.10;;;0.10;;
9500;SDS011;4788;52.438;9.846;2022-07-24T15:04:57;0.10;;;0.10;;
9500;SDS011;4788;52.438;9.846;2022-07-24T15:07:24;0.10;;;0.10;;
9500;SDS011;4788;52.438;9.846;2022-07-24T15:09:50;0.00;;;0.00;;
9500;SDS011;4788;52.438;9.846;2022-07-24T15:12:16;0.10;;;0.10;;
9500;SDS011;4788;52.438;9.846;2022-07-24T15:14:42;0.10;;;0.10;;
9500;SDS011;4788;52.438;9.846;2022-07-24T15:17:08;0.10;;;0.10;;
9500;SDS011;4788;52.438;9.846;2022-07-24T15:19:34;0.03;;;0.03;;
9500;SDS011;4788;52.438;9.846;2022-07-24T15:22:00;0.00;;;0.00;;
9500;SDS011;4788;52.438;9.846;2022-07-24T15:24:26;0.10;;;0.10;;
9500;SDS011;4788;52.438;9.846;2022-07-24T15:26:52;0.10;;;0.10;;
9500;SDS011;4788;52.438;9.846;2022-07-24T15:29:18;0.00;;;0.00;;
9500;SDS011;4788;52.438;9.846;2022-07-24T15:31:44;0.10;;;0.10;;
9500;SDS011;4788;52.438;9.846;2022-07-24T15:34:11;0.10;;;0.10;;
9500;SDS011;4788;52.438;9.846;2022-07-24T15:36:38;0.10;;;0.10;;
9500;SDS011;4788;52.438;9.846;2022-07-24T15:39:04;0.00;;;0.00;;